Chicken, Alaska
Current Conditions -  °F | °C
As of 5:53 AM on Friday 24 Oct 2014 (Local Time) from PAEG Reporting Station
Light Snow Light Snow  
Wind Chill: 18°   Ceiling: 6000
Heat Index: 18°   Visibility: 6mi
Dew Point: 14°   Wind: 0mph
Humidity: 84%   Direction: NA
Pressure: 29.78"   Gusts: NA
Location:  64.07°N, 141.94°W
Report Text: PAEG 241353Z AUTO 00000KT 6SM -SN BR BKN060 OVC090 M08/M10 A2978 RMK AO2 SLP099 P0000 T10781100 TSNO $
Loading
Personal Weather Stations






























Interactive Weather Map
Tropical Storm Tracking
New forecast layout! Learn more

10-Day Weather Forecast

Advertisements
Track Severe Weather on mobile